Airfield :
LOGIN :

Register | Disclaimer

   EN    FR    IT 

 










Legend :    VFR   Marginal VFR   IFR   Intensive IFR   Very Intensive IFR
Visi :
Ceiling :
>= 8 km
>= 3000ft
5 to 8 km
1000 to 3000 ft
1500m to 5 km
500 to 1000 ft
800 to 1500m
200 to 500 ft
< 800m
< 200 ft
Symbols :   Thunderstorms  Fog  Heavy snow  Heavy precipitations  Wind > 20 kt
SIGMETs :     Misc.  Thunderstorms  Icing  Turbulence  Mountain Waves  Volcanic Ashes







- Airport Elevation : 79 ft
- IATA code : SPU


LDSP - Split

CURRENT METAR :
  • 262300Z AUTO 12014KT 080V150 CAVOK 17/10 Q1015

EXPIRED METARs :
  • 262230Z AUTO 11013KT 9999 SCT031/// SCT039/// 16/10 Q1015
  • 262200Z AUTO 12013KT 100V160 9999 BKN031/// OVC036/// 17/11 Q1015
  • 262130Z AUTO 11012KT 080V140 9999 BKN030/// OVC035/// 16/11 Q1015
  • 262100Z AUTO 11012KT 080V140 9999 SCT029/// BKN033/// 16/12 Q1015
  • 262030Z 12011KT 9999 BKN030 16/12 Q1015 NOSIG

TAF TAF LDSP
Valid from the 26 at 18:00 until the 27 at 18:00 UTC


261725Z 2618/2718 11015KT 9999 SCT040 TX20/2712Z TN15/2704Z
PROB40
TEMPO 2618/2718 11018G28KT
No reported NOTAMs for that airfield.



MET'MAP, your aeronautical weather chart ! - Copyright ORBIFLY December 2007 - Disclaimer

ORBIFLY MET'MAP TEAM :

Programming & Development : Alexandra Zaïnal
Concept & Development : Baudouin d'Aumeries
Co-Development & Prog : Marc-Olivier Méhu
Technical & hardware support : Manuel Goepfert

Contact : metmap@orbifly.com




SOURCES & CREDITS :

   NOAA